Terminal Aerodrome Forecast
Issued by NWS Charleston, WV

Current Version | Previous Version | Graphics & Text | Print | Product List | Glossary On
Versions: 1 2 3 4 5 6 7 8 9 10 11 12 13 14 15 16 17 18 19 20 21 22 23 24 25 26 27
273
FTUS41 KRLX 270205 AAA
TAFPKB
TAF AMD
KPKB 270205Z 2702/2724 13003KT 6SM BR FEW250
     FM270700 VRB03KT 5SM BR FEW250
     FM271100 15003KT P6SM BKN050
     FM271800 VRB03KT P6SM SHRA VCTS OVC040CB
     FM272100 VRB03KT P6SM SHRA VCTS OVC025CB=

USA.gov is the U.S. government's official web portal to all federal, state and local government web resources and services.